• Join FlightAware (Why Join?)
  • Login
  • US Flag 
04:49AM EDT


 

Airport Tracker/Info


-or-


 

Live Flight TrackerFlight Track Log ✈ JBU51 ✈ 16-Jun-2013 ✈ KBTV - KJFK

Flight Track Log - Related Links

Times and Time Zones

All times are in EDT time to prevent confusion due to time zone crossing. See the JBU51 flight status page for this flight to view local times or setup timezone preferences in your user account.

Time Position Orientation Groundspeed Altitude Reporting Facility
EDT Latitude Longitude Course Direction KTS MPH feet Rate Location/Type
11:28AM 44.4050 -73.1433 196° South 191 220 3,100  Level Boston Center
11:30AM 44.2272 -73.2307 190° South  Level FlightAware Approximate
11:30AM 44.3528 -73.1600 193° South 196 226 6,000  Level Boston Center
11:31AM 44.1507 -73.2685 195° South  Level FlightAware Approximate
11:31AM 44.2733 -73.1939 197° South 234 269 9,800  Level Boston Center
11:32AM 44.0712 -73.2983 195° South  Level FlightAware Approximate
11:32AM 44.2025 -73.1958 181° South 271 312 12,200  Level Boston Center
11:33AM 43.9912 -73.3252 194° South  Level FlightAware Approximate
11:33AM 44.1089 -73.1975 181° South 315 362 14,400  Level Boston Center
11:34AM 43.9113 -73.3522 196° South  Level FlightAware Approximate
11:34AM 44.0169 -73.2167 189° South 337 388 16,600  Level Boston Center
11:35AM 43.9167 -73.2442 191° South 362 417 19,200 2,460 Climbing Boston Center
11:36AM 43.8186 -73.2717 191° South 367 422 21,600 2,220 Climbing Boston Center
11:37AM 43.7225 -73.2989 192° South 361 415 23,700 1,920 Climbing Boston Center
11:38AM 43.6267 -73.3178 188° South 361 415 25,500 1,620 Climbing Boston Center
11:39AM 43.5283 -73.3450 191° South 356 410 27,000 1,080 Climbing Boston Center
11:40AM 43.4261 -73.3719 191° South 362 417 27,700 420 Climbing Boston Center
11:41AM 43.3156 -73.4017 191° South 383 441 27,900 120 Climbing Boston Center
11:42AM 43.1983 -73.4311 190° South 408 470 28,000  Climbing Boston Center
11:43AM 43.0814 -73.4633 191° South 422 486 28,000  Level Boston Center
11:44AM 42.9625 -73.4956 191° South 430 495 28,000  Level Boston Center
11:45AM 42.8350 -73.5300 191° South 430 495 28,000  Level Boston Center
11:46AM 42.7178 -73.5619 191° South 430 495 28,000  Level Boston Center
11:47AM 42.6092 -73.5911 191° South 435 501 28,000  Level Boston Center
11:48AM 42.4922 -73.6197 190° South 435 501 28,000  Level Boston Center
11:49AM 42.3731 -73.6514 191° South 435 501 28,000  Level Boston Center
11:50AM 42.2561 -73.6742 188° South 429 494 28,000  Level Boston Center
11:51AM 42.1392 -73.7056 191° South 429 494 28,000  Level Boston Center
11:52AM 42.0217 -73.7592 199° South 434 499 28,000  Level Boston Center
11:53AM 41.9128 -73.8156 201° Southwest 434 499 28,000  Level Boston Center
11:54AM 41.8017 -73.8658 199° South 434 499 28,000 -1,260 Level Boston Center
11:55AM 41.6228 -73.9486 199° South 424 488 24,900 -2,100 Descending New York Center
11:56AM 41.5214 -73.9992 200° South 419 482 22,800 -2,100 Descending New York Center
11:57AM 41.4161 -74.0411 197° South 407 468 20,800 -1,440 Descending New York Center
11:58AM 41.3114 -74.0636 189° South 401 461 20,000 -420 Descending New York Center
11:59AM 41.2047 -74.0831 188° South 395 455 20,000 -300 Level New York Center
12:00PM 41.1083 -74.1031 189° South 377 434 19,400 -660 Descending New York Center
12:01PM 41.0500 -74.1167 190° South 329 379 19,100 -300 Descending New York TRACON
12:02PM 40.9667 -74.1000 171° South 351 404 19,000 -780 Descending New York TRACON
12:03PM 40.8833 -74.0167 143° Southeast 370 426 17,600 -1,740 Descending New York TRACON
12:04PM 40.8000 -73.9333 143° Southeast 363 418 15,600 -1,980 Descending New York TRACON
12:05PM 40.7333 -73.8500 137° Southeast 354 407 13,700 -1,320 Descending New York TRACON
12:06PM 40.7000 -73.7333 111° Southeast 407 468 13,000 -1,200 Descending New York TRACON
12:07PM 40.6667 -73.6167 111° Southeast 334 384 11,400 -1,620 Descending New York TRACON
12:08PM 40.6000 -73.5500 143° Southeast 303 349 9,600 -1,560 Descending New York TRACON
12:09PM 40.5333 -73.5667 191° South 258 297 8,300 -1,620 Descending New York TRACON
12:10PM 40.4833 -73.6167 217° Southwest 253 291 6,600 -1,800 Descending New York TRACON
12:11PM 40.4500 -73.7000 242° Southwest 241 277 4,800 -1,800 Descending New York TRACON
12:12PM 40.4333 -73.7833 255° West 250 288 3,100 -900 Descending New York TRACON
12:13PM 40.4500 -73.8833 282° West 257 296 3,000 -60 Descending New York TRACON
12:14PM 40.4833 -73.9667 298° West 267 307 3,000  Level New York TRACON
12:15PM 40.5500 -73.9500 11° North 257 296 3,000 -300 Level New York TRACON
12:16PM 40.6000 -73.9000 37° Northeast 245 282 2,500 -960 Descending New York TRACON
12:17PM 40.6667 -73.8500 30° Northeast 200 230 1,100 -1,320 Descending New York TRACON
12:19PM 40.6398 -73.7789 123° Southeast  Level Estimated
12:26PM 40.6398 -73.7789 311° West  Level Estimated